LGRX/GPA METAR and TAF weather

Enter ICAO airport designator
Station Type Date Time Source
LGRX METAR 2019/04/25 16:20 UTC NOAA

LGRX 251620Z 02007KT 9999 FEW020 BKN080 18/13 Q1020


Station Type Date Time Source
LGRX Decoded METAR 2019/04/25 16:20 UTC NOAA

Araxos Airport , Greece (LGRX) 38-09N 021-25E 12M
Apr 25, 2019 - 12:20 PM EDT / 2019.04.25 1620 UTC
Wind: from the NNE (020 degrees) at 8 MPH (7 KT):0
Visibility: greater than 7 mile(s):0
Sky conditions: mostly cloudy
Temperature: 64 F (18 C)
Dew Point: 55 F (13 C)
Relative Humidity: 72%
Pressure (altimeter): 30.12 in. Hg (1020 hPa)
ob: LGRX 251620Z 02007KT 9999 FEW020 BKN080 18/13 Q1020
cycle: 16

Station Type Date Time Source
LGRX TAF 2017/09/23 18:36 UTC NOAA

TAF TAF LGRX 231700Z 2318/2406 33010KT 9999 FEW025
BECMG 2322/2324 VRB03KT

Example: see airport list